createdAt,value
2017-02-10T00:02:27.004Z,95.50
2017-02-10T00:07:23.225Z,95.12
2017-02-10T00:12:19.986Z,95.40
2017-02-10T00:17:16.139Z,95.12
2017-02-10T00:22:12.426Z,95.68
2017-02-10T00:27:08.655Z,95.87
2017-02-10T00:32:04.808Z,96.63
2017-02-10T00:37:00.996Z,95.87
2017-02-10T00:41:58.156Z,95.50
2017-02-10T00:46:54.453Z,95.97
2017-02-10T00:51:50.826Z,95.40
2017-02-10T00:56:47.450Z,95.68
2017-02-10T01:01:43.983Z,95.68
2017-02-10T01:06:41.033Z,95.97
2017-02-10T01:11:37.252Z,96.06
2017-02-10T01:16:33.551Z,96.06
2017-02-10T01:21:29.811Z,95.40
2017-02-10T01:26:26.208Z,95.87
2017-02-10T01:31:22.495Z,95.68
2017-02-10T01:36:18.730Z,96.44
2017-02-10T01:41:16.248Z,96.06
2017-02-10T01:46:12.301Z,96.25
2017-02-10T01:51:08.629Z,96.54
2017-02-10T01:56:04.745Z,96.44
2017-02-10T02:01:01.008Z,96.35
2017-02-10T02:05:57.325Z,95.97
2017-02-10T02:10:53.547Z,95.87
2017-02-10T02:15:50.162Z,96.06
2017-02-10T02:20:46.323Z,95.87
2017-02-10T02:25:42.481Z,95.68
2017-02-10T02:30:38.220Z,95.59
2017-02-10T02:35:34.498Z,95.21
2017-02-10T02:40:31.736Z,95.78
2017-02-10T02:45:27.880Z,95.87
2017-02-10T02:50:24.638Z,95.59
2017-02-10T02:55:20.940Z,95.31
2017-02-10T03:00:16.900Z,95.68
2017-02-10T03:05:13.840Z,95.59
2017-02-10T03:10:10.656Z,96.35
2017-02-10T03:15:06.713Z,96.44
2017-02-10T03:20:03.046Z,96.54
2017-02-10T03:24:59.153Z,95.87
2017-02-10T03:29:55.343Z,95.97
2017-02-10T03:34:51.895Z,95.78
2017-02-10T03:39:48.392Z,95.97
2017-02-10T03:44:44.392Z,96.16
2017-02-10T03:49:40.512Z,95.78
2017-02-10T03:54:36.649Z,96.54
2017-02-10T03:59:33.502Z,96.63
2017-02-10T04:04:29.822Z,96.44
2017-02-10T04:09:26.232Z,96.91
2017-02-10T04:14:22.356Z,96.06
2017-02-10T04:19:18.492Z,96.25
2017-02-10T04:24:15.071Z,96.91
2017-02-10T04:29:12.505Z,96.73
2017-02-10T04:34:09.605Z,96.54
2017-02-10T04:39:05.641Z,96.82
2017-02-10T04:44:01.643Z,96.91
2017-02-10T04:48:57.983Z,97.29
2017-02-10T04:53:54.188Z,97.58
2017-02-10T04:58:50.462Z,97.34
2017-02-10T05:03:46.724Z,97.39
2017-02-10T05:08:42.782Z,96.54
2017-02-10T05:13:39.283Z,96.82
2017-02-10T05:18:35.679Z,97.05
2017-02-10T05:23:31.845Z,97.77
2017-02-10T05:28:27.861Z,97.39
2017-02-10T05:33:24.421Z,97.29
2017-02-10T05:38:21.350Z,97.34
2017-02-10T05:43:17.792Z,97.67
2017-02-10T05:48:13.893Z,97.62
2017-02-10T05:53:10.351Z,97.43
2017-02-10T05:58:06.115Z,97.77
2017-02-10T06:03:03.559Z,97.86
2017-02-10T06:07:59.654Z,97.86
2017-02-10T06:12:56.115Z,97.86
2017-02-10T06:17:52.404Z,97.86
2017-02-10T06:22:48.725Z,97.86
2017-02-10T06:27:44.724Z,98.52
2017-02-10T06:32:41.908Z,98.14
2017-02-10T06:37:38.136Z,98.71
2017-02-10T06:42:34.350Z,98.71
2017-02-10T06:47:30.624Z,98.80
2017-02-10T06:52:28.050Z,99.18
2017-02-10T06:57:23.760Z,98.99
2017-02-10T07:02:20.160Z,99.27
2017-02-10T07:07:16.329Z,99.37
2017-02-10T07:12:12.567Z,99.56
2017-02-10T07:17:08.940Z,99.56
2017-02-10T07:22:05.129Z,99.46
2017-02-10T07:27:01.479Z,98.99
2017-02-10T07:31:58.317Z,99.27
2017-02-10T07:36:54.921Z,99.46
2017-02-10T07:41:51.079Z,99.46
2017-02-10T07:46:47.110Z,99.46
2017-02-10T07:51:44.225Z,99.27
2017-02-10T07:56:40.234Z,99.08
2017-02-10T08:01:36.472Z,99.27
2017-02-10T08:06:32.846Z,99.37
2017-02-10T08:11:29.931Z,99.08
2017-02-10T08:16:26.351Z,98.52
2017-02-10T08:21:22.521Z,98.24
2017-02-10T08:26:18.799Z,97.96
2017-02-10T08:31:15.319Z,97.10
2017-02-10T08:36:11.375Z,97.10
2017-02-10T08:41:07.552Z,97.96
2017-02-10T08:46:03.848Z,96.91
2017-02-10T08:50:59.814Z,97.96
2017-02-10T08:55:56.740Z,96.82
2017-02-10T09:00:52.829Z,97.39
2017-02-10T09:05:49.166Z,97.20
2017-02-10T09:10:45.921Z,96.63
2017-02-10T09:15:42.962Z,97.10
2017-02-10T09:20:39.276Z,96.82
2017-02-10T09:25:35.631Z,96.82
2017-02-10T09:30:32.964Z,96.21
2017-02-10T09:35:29.165Z,96.25
2017-02-10T09:40:26.413Z,95.73
2017-02-10T09:45:22.551Z,95.36
2017-02-10T09:50:21.463Z,95.07
2017-02-10T09:55:17.434Z,95.73
2017-02-10T10:00:13.708Z,95.45
2017-02-10T10:05:10.840Z,95.73
2017-02-10T10:10:06.956Z,95.45
2017-02-10T10:15:03.305Z,96.02
2017-02-10T10:19:59.564Z,96.02
2017-02-10T10:24:55.765Z,95.64
2017-02-10T10:29:52.137Z,96.59
2017-02-10T10:34:49.765Z,95.17
2017-02-10T10:39:45.732Z,95.73
2017-02-10T10:44:42.001Z,96.02
2017-02-10T10:49:39.411Z,95.92
2017-02-10T10:54:35.180Z,96.87
2017-02-10T10:59:31.411Z,96.68
2017-02-10T11:04:28.560Z,96.21
2017-02-10T11:09:24.924Z,96.06
2017-02-10T11:14:21.262Z,95.73
2017-02-10T11:19:17.825Z,96.25
2017-02-10T11:24:15.239Z,95.17
2017-02-10T11:34:12.601Z,95.73
2017-02-10T11:39:11.014Z,94.79
2017-02-10T11:44:06.834Z,95.54
2017-02-10T11:49:03.305Z,95.36
2017-02-10T11:53:59.787Z,94.41
2017-02-10T11:58:55.952Z,94.89
2017-02-10T12:03:52.331Z,94.32
2017-02-10T12:08:49.199Z,94.89
2017-02-10T12:13:45.504Z,94.98
2017-02-10T12:18:42.319Z,94.89
2017-02-10T12:23:39.058Z,93.94
2017-02-10T12:28:36.486Z,94.60
2017-02-10T12:33:32.569Z,94.51
2017-02-10T12:38:28.971Z,94.51
2017-02-10T12:43:25.887Z,94.98
2017-02-10T12:48:22.353Z,94.22
2017-02-10T12:53:18.830Z,94.22
2017-02-10T12:58:15.175Z,94.70
2017-02-10T13:03:11.565Z,95.26
2017-02-10T13:08:07.693Z,94.60
2017-02-10T13:13:03.748Z,94.79
2017-02-10T13:18:00.011Z,94.98
2017-02-10T13:22:56.136Z,94.89
2017-02-10T13:27:52.703Z,94.13
2017-02-10T13:32:51.893Z,94.51
2017-02-10T13:37:47.428Z,94.41
2017-02-10T13:42:44.417Z,95.17
2017-02-10T13:47:40.915Z,94.98
2017-02-10T13:52:37.840Z,94.79
2017-02-10T13:57:35.815Z,94.70
2017-02-10T14:02:31.874Z,94.41
2017-02-10T14:07:27.943Z,94.89
2017-02-10T14:12:24.451Z,95.26
2017-02-10T14:17:20.764Z,94.89
2017-02-10T14:22:17.722Z,94.79
2017-02-10T14:27:14.009Z,94.41
2017-02-10T14:32:10.362Z,94.79
2017-02-10T14:37:06.809Z,94.98
2017-02-10T14:42:03.927Z,94.60
2017-02-10T14:47:00.282Z,94.89
2017-02-10T14:51:56.540Z,95.26
2017-02-10T14:56:52.795Z,94.89
2017-02-10T15:01:49.170Z,94.79
2017-02-10T15:06:45.528Z,95.73
2017-02-10T15:11:41.527Z,95.54
2017-02-10T15:16:37.645Z,95.17
2017-02-10T15:21:34.685Z,95.36
2017-02-10T15:26:30.672Z,96.02
2017-02-10T15:31:27.088Z,95.64
2017-02-10T15:36:23.209Z,95.73
2017-02-10T15:41:19.581Z,95.83
2017-02-10T15:46:16.216Z,96.59
2017-02-10T15:51:13.401Z,95.92
2017-02-10T15:56:11.786Z,95.92
2017-02-10T16:01:07.603Z,96.49
2017-02-10T16:06:04.434Z,96.49
2017-02-10T16:11:00.748Z,96.49
2017-02-10T16:15:57.305Z,96.59
2017-02-10T16:20:53.766Z,96.87
2017-02-10T16:25:50.033Z,96.68
2017-02-10T16:30:46.144Z,96.87
2017-02-10T16:35:42.491Z,96.87
2017-02-10T16:40:38.854Z,96.21
2017-02-10T16:45:36.041Z,96.87
2017-02-10T16:50:32.334Z,96.59
2017-02-10T16:55:28.969Z,96.78
2017-02-10T17:00:25.191Z,96.96
2017-02-10T17:05:21.701Z,97.06
2017-02-10T17:10:17.779Z,97.06
2017-02-10T17:15:14.703Z,96.59
2017-02-10T17:20:11.237Z,96.87
2017-02-10T17:25:09.434Z,96.78
2017-02-10T17:30:05.793Z,96.78
2017-02-10T17:35:03.126Z,96.40
2017-02-10T17:39:59.021Z,96.68
2017-02-10T17:44:55.326Z,97.34
2017-02-10T17:49:51.727Z,97.72
2017-02-10T17:54:51.001Z,96.49
2017-02-10T17:59:47.027Z,96.49
2017-02-10T18:04:44.023Z,96.87
2017-02-10T18:09:40.365Z,96.30
2017-02-10T18:14:36.989Z,96.49
2017-02-10T18:19:33.292Z,96.49
2017-02-10T18:24:30.624Z,96.78
2017-02-10T18:29:26.946Z,96.49
2017-02-10T18:34:23.339Z,96.68
2017-02-10T18:39:19.879Z,97.06
2017-02-10T18:44:16.313Z,97.06
2017-02-10T18:49:12.546Z,96.40
2017-02-10T18:54:08.826Z,97.44
2017-02-10T18:59:05.436Z,97.34
2017-02-10T19:04:03.976Z,97.15
2017-02-10T19:09:00.086Z,97.25
2017-02-10T19:13:56.300Z,97.25
2017-02-10T19:18:52.810Z,97.44
2017-02-10T19:23:49.877Z,97.15
2017-02-10T19:28:48.087Z,97.25
2017-02-10T19:38:47.307Z,97.53
2017-02-10T19:43:43.298Z,97.25
2017-02-10T19:48:39.411Z,97.72
2017-02-10T19:53:37.793Z,97.44
2017-02-10T19:58:33.909Z,97.81
2017-02-10T20:03:29.968Z,97.72
2017-02-10T20:08:26.333Z,97.81
2017-02-10T20:13:22.733Z,97.81
2017-02-10T20:18:19.141Z,97.53
2017-02-10T20:23:15.394Z,97.72
2017-02-10T20:28:11.521Z,97.91
2017-02-10T20:33:08.436Z,97.63
2017-02-10T20:38:04.809Z,98.38
2017-02-10T20:43:01.566Z,98.00
2017-02-10T20:47:58.811Z,97.81
2017-02-10T20:52:55.369Z,97.81
2017-02-10T20:57:51.621Z,97.91
2017-02-10T21:02:48.916Z,98.19
2017-02-10T21:07:46.204Z,98.00
2017-02-10T21:12:42.812Z,98.19
2017-02-10T21:17:39.212Z,98.38
2017-02-10T21:22:35.684Z,97.91
2017-02-10T21:27:31.833Z,98.47
2017-02-10T21:32:28.966Z,98.76
2017-02-10T21:37:25.328Z,98.28
2017-02-10T21:42:21.923Z,98.47
2017-02-10T21:47:18.438Z,98.38
2017-02-10T21:52:14.975Z,98.57
2017-02-10T21:57:11.129Z,98.57
2017-02-10T22:02:07.646Z,98.38
2017-02-10T22:07:04.062Z,98.28
2017-02-10T22:12:01.948Z,98.57
2017-02-10T22:16:58.052Z,98.57
2017-02-10T22:21:54.692Z,98.57
2017-02-10T22:26:50.637Z,98.76
2017-02-10T22:31:47.333Z,98.95
2017-02-10T22:36:46.719Z,98.57
2017-02-10T22:41:42.487Z,98.38
2017-02-10T22:46:39.616Z,98.57
2017-02-10T22:51:35.927Z,98.57
2017-02-10T22:56:32.622Z,98.57
2017-02-10T23:01:29.213Z,98.66
2017-02-10T23:06:25.532Z,98.10
2017-02-10T23:11:22.103Z,98.57
2017-02-10T23:16:18.352Z,99.23
2017-02-10T23:21:14.716Z,98.47
2017-02-10T23:26:11.454Z,99.33
2017-02-10T23:31:08.723Z,98.38
2017-02-10T23:36:04.760Z,99.23
2017-02-10T23:41:01.287Z,99.14
2017-02-10T23:45:58.695Z,98.38
2017-02-10T23:50:54.893Z,98.57
2017-02-10T23:55:51.532Z,98.57
